Time;durP1;ratioP1;P1;durP2;ratioP2;P2;SDS_P1;SDS_P2;PMS_P1;PMS_P2;Temp;Humidity;BMP_temperature;BMP_pressure;BME280_temperature;BME280_humidity;BME280_pressure;Samples;Min_cycle;Max_cycle;Signal;HPM_P1;HPM_P2
2021/08/26 00:00:17;;;;;;;6.92;3.72;;;;;;;13.44;100.00;98934.77;1663606;84;20943;-63
2021/08/26 00:05:50;;;;;;;4.45;3.77;;;;;;;13.44;100.00;98942.86;1663841;84;21127;-63
2021/08/26 00:08:22;;;;;;;4.05;3.65;;;;;;;13.43;100.00;98939.92;1663486;84;20927;-62
2021/08/26 00:10:49;;;;;;;4.85;3.70;;;;;;;13.45;100.00;98936.40;1663803;84;21347;-62
2021/08/26 00:13:16;;;;;;;5.65;3.62;;;;;;;13.45;100.00;98939.09;1663507;84;20995;-63
2021/08/26 00:15:46;;;;;;;;;;;;;;;13.45;100.00;98936.95;1666161;85;21413;-63
2021/08/26 00:18:13;;;;;;;;;;;;;;;13.45;100.00;98935.05;1666118;84;21172;-63
2021/08/26 00:20:41;;;;;;;6.85;4.30;;;;;;;13.42;100.00;98938.30;1663406;84;20102;-63
2021/08/26 00:23:07;;;;;;;4.80;3.90;;;;;;;13.41;100.00;98937.26;1663327;86;21382;-63
2021/08/26 00:25:36;;;;;;;7.78;5.15;;;;;;;13.39;100.00;98938.08;1663473;86;38691;-63
2021/08/26 00:28:04;;;;;;;5.40;4.90;;;;;;;13.34;100.00;98940.84;1663607;84;21505;-64
2021/08/26 00:30:31;;;;;;;6.00;4.47;;;;;;;13.34;100.00;98934.90;1663500;84;21721;-64
2021/08/26 00:32:57;;;;;;;11.97;4.85;;;;;;;13.34;100.00;98931.41;1663480;84;20868;-63
2021/08/26 00:35:24;;;;;;;6.78;4.30;;;;;;;13.33;100.00;98937.34;1663469;84;21090;-63
2021/08/26 00:37:50;;;;;;;8.05;4.53;;;;;;;13.31;100.00;98936.03;1663553;86;21000;-63
2021/08/26 00:40:17;;;;;;;6.12;4.95;;;;;;;13.29;100.00;98933.61;1663504;84;21047;-63
2021/08/26 00:42:45;;;;;;;5.87;4.42;;;;;;;13.29;100.00;98939.00;1663578;85;21474;-65
2021/08/26 00:45:12;;;;;;;5.75;5.10;;;;;;;13.28;100.00;98935.51;1663277;86;20920;-65
2021/08/26 00:47:43;;;;;;;7.22;4.78;;;;;;;13.28;100.00;98934.16;1663495;86;20923;-63
2021/08/26 00:50:10;;;;;;;8.83;5.03;;;;;;;13.29;100.00;98934.95;1663627;84;21379;-65
2021/08/26 00:52:38;;;;;;;5.10;4.60;;;;;;;13.29;100.00;98932.27;1662844;84;20998;-64
2021/08/26 00:55:07;;;;;;;;;;;;;;;13.31;100.00;98936.83;1666035;84;21746;-64
2021/08/26 00:57:35;;;;;;;7.35;5.10;;;;;;;13.27;100.00;98934.44;1663605;86;20156;-64
2021/08/26 01:00:07;;;;;;;7.17;5.53;;;;;;;13.26;100.00;98931.47;1663917;84;20852;-64
2021/08/26 01:03:07;;;;;;;8.58;6.45;;;;;;;13.26;100.00;98932.81;1663647;84;20911;-63
2021/08/26 01:05:53;;;;;;;;;;;;;;;13.21;100.00;98928.28;1661186;86;21460;-64
2021/08/26 01:08:38;;;;;;;8.30;7.03;;;;;;;13.19;100.00;98931.00;1663782;84;20114;-63
2021/08/26 01:11:05;;;;;;;8.95;6.58;;;;;;;13.23;100.00;98923.41;1663486;86;21470;-64
2021/08/26 01:13:35;;;;;;;10.25;6.42;;;;;;;13.24;100.00;98925.55;1663890;84;21366;-64
2021/08/26 01:16:06;;;;;;;9.70;7.35;;;;;;;13.25;100.00;98926.63;1663729;84;20908;-64
2021/08/26 01:18:35;;;;;;;9.90;7.90;;;;;;;13.25;100.00;98923.10;1635705;86;21014;-63
2021/08/26 01:21:08;;;;;;;10.65;7.28;;;;;;;13.23;100.00;98916.67;1642508;85;21910;-64
2021/08/26 01:23:36;;;;;;;9.00;7.40;;;;;;;13.23;100.00;98916.67;1661676;86;21465;-62
2021/08/26 01:26:10;;;;;;;13.43;8.38;;;;;;;13.22;100.00;98916.39;1661698;86;21387;-63
2021/08/26 01:28:36;;;;;;;12.45;8.25;;;;;;;13.17;100.00;98908.92;1661744;86;20935;-63
2021/08/26 01:31:03;;;;;;;13.35;8.70;;;;;;;13.19;100.00;98913.48;1659768;85;20975;-63
2021/08/26 01:33:30;;;;;;;13.18;8.03;;;;;;;13.19;100.00;98909.44;1659322;85;21194;-63
2021/08/26 01:36:01;;;;;;;9.10;7.37;;;;;;;13.20;100.00;98903.75;1659213;86;20948;-61
2021/08/26 01:38:27;;;;;;;12.82;7.60;;;;;;;13.18;100.00;98903.26;1659498;86;21367;-62
2021/08/26 01:40:54;;;;;;;10.65;7.87;;;;;;;13.19;100.00;98902.16;1659347;85;20935;-62
2021/08/26 01:43:21;;;;;;;10.98;8.00;;;;;;;13.19;100.00;98898.11;1659492;86;20880;-62
2021/08/26 01:45:49;;;;;;;13.98;8.58;;;;;;;13.19;100.00;98897.31;1659126;86;21101;-63
2021/08/26 01:48:19;;;;;;;12.50;9.33;;;;;;;13.20;100.00;98889.48;1659415;85;20967;-63
2021/08/26 01:50:49;;;;;;;11.35;7.83;;;;;;;13.20;100.00;98892.97;1659299;85;20983;-63
2021/08/26 01:53:16;;;;;;;17.15;8.33;;;;;;;13.22;100.00;98888.66;1659659;86;20888;-65
2021/08/26 01:55:43;;;;;;;12.05;8.28;;;;;;;13.24;100.00;98887.83;1659080;85;20888;-65
2021/08/26 01:58:10;;;;;;;12.63;9.03;;;;;;;13.21;100.00;98883.02;1659421;85;21145;-65
2021/08/26 02:00:36;;;;;;;15.10;9.73;;;;;;;13.19;100.00;98891.38;1659333;85;20904;-64
2021/08/26 02:03:03;;;;;;;12.00;9.00;;;;;;;13.17;100.00;98886.02;1659524;86;20853;-63
2021/08/26 02:05:30;;;;;;;14.75;9.43;;;;;;;13.14;100.00;98883.36;1659175;86;21387;-64
2021/08/26 02:07:58;;;;;;;14.65;9.10;;;;;;;13.11;100.00;98887.18;1659498;85;20841;-64
2021/08/26 02:10:24;;;;;;;12.10;9.10;;;;;;;13.09;100.00;98884.77;1659293;86;21056;-64
2021/08/26 02:12:51;;;;;;;11.78;9.10;;;;;;;13.10;100.00;98883.66;1659382;85;20876;-64
2021/08/26 02:15:18;;;;;;;16.20;10.28;;;;;;;13.07;100.00;98878.85;1659120;85;20995;-65
2021/08/26 02:17:45;;;;;;;14.45;9.20;;;;;;;13.05;100.00;98873.73;1658977;85;21019;-65
2021/08/26 02:20:13;;;;;;;15.03;10.48;;;;;;;13.03;100.00;98870.55;1659277;86;21007;-65
2021/08/26 02:22:39;;;;;;;16.05;10.30;;;;;;;13.01;100.00;98866.54;1659427;85;21153;-65
2021/08/26 02:25:10;;;;;;;13.88;10.32;;;;;;;12.98;100.00;98863.84;1659451;85;25049;-65
2021/08/26 02:27:37;;;;;;;17.32;10.25;;;;;;;12.96;100.00;98870.09;1659021;85;20975;-65
2021/08/26 02:30:06;;;;;;;12.07;9.68;;;;;;;12.94;100.00;98876.30;1656674;84;20984;-65
2021/08/26 02:32:33;;;;;;;15.30;10.50;;;;;;;12.93;100.00;98880.61;1645000;86;21468;-66
2021/08/26 02:35:03;;;;;;;14.28;10.85;;;;;;;12.91;100.00;98882.27;1645070;86;21135;-66
2021/08/26 02:37:32;;;;;;;15.80;10.28;;;;;;;12.92;100.00;98890.59;1645180;86;20941;-66
2021/08/26 02:39:59;;;;;;;18.73;10.88;;;;;;;12.93;100.00;98889.49;1667575;84;20928;-67
2021/08/26 02:46:48;;;;;;;20.77;11.57;;;;;;;12.95;100.00;98886.52;1643134;86;21103;-67
2021/08/26 02:50:34;;;;;;;16.25;12.45;;;;;;;12.94;100.00;98890.31;1613661;89;20951;-67
2021/08/26 03:01:51;;;;;;;15.23;11.73;;;;;;;12.84;100.00;98892.57;1532419;93;21643;-68
2021/08/26 03:05:01;;;;;;;17.27;11.20;;;;;;;12.83;100.00;98889.60;1459469;97;20968;-67
2021/08/26 03:12:09;;;;;;;19.75;12.53;;;;;;;12.82;100.00;98888.80;1425010;99;21058;-68
2021/08/26 03:14:50;;;;;;;18.48;13.60;;;;;;;12.81;100.00;98885.03;1415119;100;21053;-68
2021/08/26 03:17:40;;;;;;;19.80;11.97;;;;;;;12.81;100.00;98884.52;1401904;101;21072;-68
2021/08/26 03:21:29;;;;;;;18.50;12.35;;;;;;;12.79;100.00;98880.50;;;;
2021/08/26 03:28:54;;;;;;;17.52;13.00;;;;;;;12.76;100.00;98874.32;1314216;107;21019;-66
2021/08/26 03:31:27;;;;;;;19.23;11.90;;;;;;;12.75;100.00;98878.91;1310853;107;21589;-67
2021/08/26 03:33:54;;;;;;;18.12;11.75;;;;;;;12.75;100.00;98882.15;1308434;109;21323;-67
2021/08/26 03:40:36;;;;;;;17.62;12.65;;;;;;;12.73;100.00;98871.66;1348007;106;21353;-67
2021/08/26 03:43:57;;;;;;;18.48;11.80;;;;;;;12.75;100.00;98885.64;1319245;108;21126;-68
2021/08/26 03:46:40;;;;;;;17.30;13.08;;;;;;;12.77;100.00;98886.72;1309123;108;21593;-68
2021/08/26 03:50:10;;;;;;;20.92;11.85;;;;;;;12.78;100.00;98890.45;1290202;111;21163;-66
2021/08/26 03:52:36;;;;;;;20.20;11.45;;;;;;;12.78;100.00;98895.04;1283155;111;21161;-66
2021/08/26 03:55:05;;;;;;;21.23;12.95;;;;;;;12.78;100.00;98904.47;1282723;110;22137;-66
2021/08/26 03:57:50;;;;;;;19.20;12.33;;;;;;;12.78;100.00;98892.34;1298517;108;21064;-66
2021/08/26 04:00:45;;;;;;;15.95;12.45;;;;;;;12.77;100.00;98888.86;1330705;106;21150;-67
2021/08/26 04:03:33;;;;;;;17.20;11.68;;;;;;;12.79;100.00;98880.50;1303877;108;21594;-66
2021/08/26 04:11:34;;;;;;;17.55;12.30;;;;;;;12.78;100.00;98884.27;1302246;108;21088;-67
2021/08/26 04:19:17;;;;;;;18.32;12.95;;;;;;;12.84;100.00;98885.84;1321113;106;21538;-68
2021/08/26 04:37:51;;;;;;;15.13;12.07;;;;;;;12.87;100.00;98887.41;1336882;105;21214;-66
2021/08/26 04:40:46;;;;;;;20.75;11.55;;;;;;;12.87;100.00;98877.18;1373097;103;21045;-67
2021/08/26 04:46:48;;;;;;;19.27;12.78;;;;;;;12.91;100.00;98882.27;1340550;107;20987;-65
2021/08/26 04:53:21;;;;;;;18.02;12.80;;;;;;;13.02;100.00;98882.40;1315089;109;21082;-68
2021/08/26 04:56:30;;;;;;;18.07;12.47;;;;;;;13.10;100.00;98876.92;1299366;109;22283;-67
2021/08/26 04:59:11;;;;;;;18.42;12.00;;;;;;;13.17;100.00;98872.55;1311576;109;21201;-65
2021/08/26 05:02:24;;;;;;;19.57;11.75;;;;;;;13.23;100.00;98876.80;1286511;110;21297;-67
2021/08/26 05:13:58;;;;;;;14.33;10.95;;;;;;;13.31;100.00;98871.34;1406607;102;20989;-67
2021/08/26 05:17:47;;;;;;;13.88;10.70;;;;;;;13.42;100.00;98868.21;1339970;105;21281;-68
2021/08/26 06:29:11;;;;;;;8.35;6.00;;;;;;;13.71;100.00;98872.15;1571073;90;20925;-70
2021/08/26 06:31:44;;;;;;;7.53;5.53;;;;;;;13.64;100.00;98872.25;1551407;91;21453;-65
2021/08/26 06:38:33;;;;;;;7.80;5.97;;;;;;;13.62;100.00;98875.26;1545854;91;22330;-67
2021/08/26 06:52:50;;;;;;;8.78;4.50;;;;;;;14.08;100.00;98880.53;1404389;100;21411;-67
2021/08/26 06:56:10;;;;;;;5.10;4.40;;;;;;;13.92;100.00;98884.81;1404574;102;21063;-67
2021/08/26 07:06:33;;;;;;;7.78;4.17;;;;;;;14.24;100.00;98893.27;1352975;106;21121;-66
2021/08/26 07:09:09;;;;;;;6.35;4.65;;;;;;;14.13;100.00;98893.95;1371684;104;21524;-67
2021/08/26 07:11:45;;;;;;;5.72;3.90;;;;;;;14.07;100.00;98897.83;1338571;106;21227;-66
2021/08/26 07:14:15;;;;;;;5.17;4.47;;;;;;;14.05;100.00;98893.27;1356775;103;21019;-66
2021/08/26 07:17:24;;;;;;;5.62;4.78;;;;;;;13.93;100.00;98891.00;1390509;103;21514;-67
2021/08/26 07:19:51;;;;;;;6.53;4.70;;;;;;;13.94;100.00;98901.52;1390444;103;21367;-66
2021/08/26 07:22:21;;;;;;;7.35;4.83;;;;;;;13.92;100.00;98898.30;1369383;102;21442;-66
2021/08/26 07:24:47;;;;;;;6.30;5.03;;;;;;;13.98;100.00;98895.53;1407565;100;21372;-65
2021/08/26 07:27:16;;;;;;;;;;;;;;;14.01;100.00;98893.03;1428907;99;21049;-66
2021/08/26 07:29:43;;;;;;;8.28;6.05;;;;;;;14.02;100.00;98901.40;1560132;88;20132;-65
2021/08/26 07:32:10;;;;;;;5.53;5.00;;;;;;;13.99;100.00;98905.22;1604955;88;20992;-66
2021/08/26 07:34:37;;;;;;;7.70;6.45;;;;;;;13.91;100.00;98913.42;1622541;88;21007;-66
2021/08/26 07:45:13;;;;;;;8.55;6.10;;;;;;;13.71;100.00;98902.36;1572572;89;21138;-68
2021/08/26 07:48:55;;;;;;;7.92;7.03;;;;;;;13.60;100.00;98902.26;1580600;90;21586;-68
2021/08/26 07:52:00;;;;;;;8.35;7.35;;;;;;;13.46;100.00;98912.38;1536326;92;21032;-68
2021/08/26 07:54:41;;;;;;;6.67;5.97;;;;;;;13.47;100.00;98909.96;1516210;93;21073;-68
2021/08/26 07:57:16;;;;;;;8.68;6.58;;;;;;;13.38;100.00;98906.29;1516276;93;21595;-68
2021/08/26 07:59:54;;;;;;;7.78;6.80;;;;;;;13.41;100.00;98900.87;1498604;94;21090;-67
2021/08/26 08:02:20;;;;;;;8.00;6.17;;;;;;;13.39;100.00;98899.80;1516481;93;21033;-68
2021/08/26 08:05:30;;;;;;;9.30;7.95;;;;;;;13.44;100.00;98906.47;1474364;95;21616;-68
2021/08/26 08:07:58;;;;;;;15.30;7.47;;;;;;;13.40;100.00;98909.50;1495496;93;21433;-67
2021/08/26 08:10:47;;;;;;;8.38;7.22;;;;;;;13.39;100.00;98906.53;1519241;93;20964;-68
2021/08/26 08:13:25;;;;;;;9.10;6.67;;;;;;;13.40;100.00;98902.77;1517313;93;21064;-68
2021/08/26 08:17:11;;;;;;;10.50;9.08;;;;;;;13.38;100.00;98909.53;1466600;97;21124;-68
2021/08/26 08:20:46;;;;;;;12.53;8.90;;;;;;;13.35;100.00;98906.88;1467457;97;27997;-69
2021/08/26 08:23:33;;;;;;;10.38;7.22;;;;;;;13.39;100.00;98903.05;1441089;99;21174;-67
2021/08/26 08:27:02;;;;;;;;;;;;;;;13.37;100.00;98906.02;1458728;97;21021;-68
2021/08/26 08:30:31;;;;;;;9.95;7.20;;;;;;;13.35;100.00;98908.22;1415626;99;20253;-68
2021/08/26 09:39:27;;;;;;;5.42;4.58;;;;;;;14.33;100.00;98892.30;1694010;82;20968;-69
2021/08/26 10:33:33;;;;;;;5.37;4.33;;;;;;;15.36;100.00;98879.66;1659921;85;21363;-68
2021/08/26 12:27:57;;;;;;;6.42;5.33;;;;;;;15.86;100.00;98868.89;1716462;82;21020;-68
2021/08/26 12:30:42;;;;;;;5.47;4.97;;;;;;;15.77;100.00;98872.06;1717867;81;21111;-66
2021/08/26 12:33:19;;;;;;;6.33;5.72;;;;;;;15.76;100.00;98869.12;1717633;82;20969;-68
2021/08/26 12:35:53;;;;;;;6.33;4.65;;;;;;;15.75;100.00;98871.56;1717895;83;21404;-67
2021/08/26 12:38:41;;;;;;;5.45;4.90;;;;;;;15.67;100.00;98874.41;1717540;82;20922;-66
2021/08/26 12:41:15;;;;;;;6.05;5.47;;;;;;;15.57;100.00;98877.34;1697011;83;21017;-68
2021/08/26 12:43:48;;;;;;;6.17;5.67;;;;;;;15.45;100.00;98877.85;1688760;83;20980;-68
2021/08/26 12:46:19;;;;;;;6.42;5.80;;;;;;;15.41;100.00;98872.81;1704236;83;21139;-68
2021/08/26 12:48:47;;;;;;;5.85;5.35;;;;;;;15.35;100.00;98870.75;1690199;83;20946;-67
2021/08/26 12:51:24;;;;;;;6.95;6.20;;;;;;;15.29;100.00;98863.86;1690330;83;21640;-67
2021/08/26 12:54:06;;;;;;;6.95;6.25;;;;;;;15.29;100.00;98863.06;1691011;83;21395;-68
2021/08/26 12:56:47;;;;;;;6.62;6.00;;;;;;;15.25;100.00;98862.84;1688509;83;21078;-68
2021/08/26 12:59:16;;;;;;;7.20;6.50;;;;;;;15.22;100.00;98858.84;1682125;85;21122;-69
2021/08/26 13:01:48;;;;;;;9.48;6.75;;;;;;;15.30;100.00;98857.34;1690358;85;21022;-68
2021/08/26 13:04:22;;;;;;;10.58;7.00;;;;;;;15.41;100.00;98852.54;1690618;83;21035;-68
2021/08/26 13:06:55;;;;;;;8.10;7.30;;;;;;;15.50;100.00;98859.37;1657079;85;20974;-68
2021/08/26 13:09:29;;;;;;;7.90;6.60;;;;;;;15.52;100.00;98853.91;1644618;85;21040;-68
2021/08/26 13:12:17;;;;;;;7.65;6.03;;;;;;;15.52;100.00;98855.25;1661184;84;20893;-68
2021/08/26 13:14:46;;;;;;;5.95;5.28;;;;;;;15.52;100.00;98850.41;1679166;85;20968;-69
2021/08/26 13:17:15;;;;;;;5.90;5.40;;;;;;;15.46;100.00;98849.72;1706360;84;20992;-69
2021/08/26 13:19:59;;;;;;;7.75;6.65;;;;;;;15.43;100.00;98847.08;1703490;83;20996;-69
2021/08/26 13:22:30;;;;;;;6.33;5.30;;;;;;;15.47;100.00;98851.31;1674157;83;21397;-69
2021/08/26 13:25:08;;;;;;;5.62;5.12;;;;;;;15.48;100.00;98846.70;1638162;85;22056;-70
2021/08/26 13:27:39;;;;;;;5.62;5.12;;;;;;;15.48;100.00;98843.44;1657119;86;20984;-69
2021/08/26 13:30:08;;;;;;;5.20;4.70;;;;;;;15.48;100.00;98843.99;1656738;85;21078;-71
2021/08/26 13:32:35;;;;;;;4.78;4.10;;;;;;;15.53;100.00;98847.94;1678759;84;21044;-70
2021/08/26 13:35:08;;;;;;;5.22;4.67;;;;;;;15.61;100.00;98845.89;1691544;84;21467;-69
2021/08/26 13:37:32;;;;;;;5.50;5.00;;;;;;;15.65;100.00;98849.03;1691749;84;21736;-69
2021/08/26 13:39:59;;;;;;;5.00;4.50;;;;;;;15.69;100.00;98843.80;1658973;84;20845;-70
2021/08/26 13:42:26;;;;;;;5.22;4.55;;;;;;;15.83;100.00;98843.80;1658771;86;20948;-69
2021/08/26 13:44:53;;;;;;;4.20;3.80;;;;;;;16.00;100.00;98847.20;1658441;85;21059;-69
2021/08/26 13:47:20;;;;;;;4.78;4.37;;;;;;;16.03;100.00;98844.67;1666519;84;21039;-69
2021/08/26 13:49:47;;;;;;;4.78;4.37;;;;;;;15.99;100.00;98841.53;1699763;84;21132;-69
2021/08/26 13:52:13;;;;;;;4.67;4.28;;;;;;;15.99;100.00;98842.88;1670792;84;21154;-69
2021/08/26 13:54:42;;;;;;;;;;;;;;;16.06;100.00;98837.84;1637146;86;20890;-69
2021/08/26 13:57:08;;;;;;;8.68;5.35;;;;;;;16.14;100.00;98841.72;1660383;85;20120;-69
2021/08/26 13:59:35;;;;;;;4.40;4.00;;;;;;;16.19;100.00;98845.66;1686583;85;20970;-68
2021/08/26 14:02:02;;;;;;;3.70;3.40;;;;;;;16.34;100.00;98847.19;1684072;85;21136;-68
2021/08/26 14:04:29;;;;;;;5.72;4.03;;;;;;;16.62;100.00;98839.72;1682412;85;20969;-67
2021/08/26 14:06:56;;;;;;;4.10;3.55;;;;;;;16.98;100.00;98836.06;1682277;85;20955;-68
2021/08/26 14:09:23;;;;;;;3.87;3.45;;;;;;;17.49;100.00;98841.39;1678849;84;21087;-68
2021/08/26 14:11:50;;;;;;;4.25;3.17;;;;;;;17.63;100.00;98843.41;1657812;86;20952;-69
2021/08/26 14:14:18;;;;;;;2.67;2.40;;;;;;;17.33;100.00;98835.63;1611677;88;21150;-68
2021/08/26 14:16:44;;;;;;;4.15;3.22;;;;;;;17.06;100.00;98838.81;1681631;85;21044;-68
2021/08/26 14:19:11;;;;;;;3.10;2.80;;;;;;;16.91;100.00;98849.53;1681402;85;20874;-68
2021/08/26 14:21:38;;;;;;;3.00;2.70;;;;;;;16.82;100.00;98845.18;1681489;85;20925;-68
2021/08/26 14:24:05;;;;;;;4.58;2.80;;;;;;;16.80;100.00;98838.70;1681537;84;21436;-69
2021/08/26 14:26:32;;;;;;;3.70;2.60;;;;;;;16.80;100.00;98840.06;1650345;85;21611;-68
2021/08/26 14:28:59;;;;;;;3.10;2.90;;;;;;;16.78;100.00;98834.67;1742466;82;21428;-67
2021/08/26 14:31:26;;;;;;;3.47;3.17;;;;;;;16.69;100.00;98839.52;1728206;82;21454;-68
2021/08/26 14:33:53;;;;;;;7.87;3.77;;;;;;;16.70;100.00;98837.03;1710599;83;20970;-67
2021/08/26 14:36:21;;;;;;;;;;;;;;;16.77;100.00;98837.95;1711478;84;21122;-67
2021/08/26 14:38:48;;;;;;;4.80;2.58;;;;;;;16.88;100.00;98839.88;1711179;82;21705;-67
2021/08/26 14:41:14;;;;;;;3.45;3.15;;;;;;;16.79;100.00;98841.19;1720252;82;20925;-67
2021/08/26 14:47:36;;;;;;;2.98;2.70;;;;;;;16.56;100.00;98839.06;1674300;85;20967;-67
2021/08/26 14:50:37;;;;;;;3.60;2.92;;;;;;;16.54;100.00;98841.83;1674220;85;21068;-67
2021/08/26 14:53:05;;;;;;;3.72;3.40;;;;;;;16.57;100.00;98845.27;1673952;85;21132;-67
2021/08/26 14:55:33;;;;;;;8.98;3.60;;;;;;;16.50;100.00;98845.14;1673930;85;21005;-67
2021/08/26 14:57:59;;;;;;;3.85;3.52;;;;;;;16.52;100.00;98847.55;1653546;85;21003;-67
2021/08/26 15:00:28;;;;;;;7.40;5.92;;;;;;;16.53;100.00;98849.70;1651152;86;20995;-66
2021/08/26 15:02:56;;;;;;;5.42;3.40;;;;;;;16.46;100.00;98856.90;1649934;85;21054;-67
2021/08/26 15:05:23;;;;;;;4.40;3.83;;;;;;;16.32;100.00;98853.48;1616723;87;21120;-66
2021/08/26 15:07:50;;;;;;;3.87;3.20;;;;;;;16.25;100.00;98855.27;1595455;88;21098;-66
2021/08/26 15:10:16;;;;;;;4.72;3.77;;;;;;;16.24;100.00;98855.00;1633507;86;21508;-66
2021/08/26 15:12:47;;;;;;;5.28;4.47;;;;;;;16.17;100.00;98855.98;1658988;86;21519;-67
2021/08/26 15:15:13;;;;;;;4.67;4.00;;;;;;;16.07;100.00;98856.50;1650580;85;21004;-66
2021/08/26 15:17:40;;;;;;;3.85;3.50;;;;;;;16.00;100.00;98853.42;1720113;82;21493;-67
2021/08/26 15:23:47;;;;;;;6.00;3.67;;;;;;;15.86;100.00;98850.74;1661129;85;20969;-69
2021/08/26 15:26:15;;;;;;;3.60;3.30;;;;;;;15.80;100.00;98848.45;1633540;84;20976;-68
2021/08/26 15:28:43;;;;;;;3.67;3.27;;;;;;;15.71;100.00;98848.95;1608827;86;21028;-68
2021/08/26 15:31:10;;;;;;;7.17;3.17;;;;;;;15.65;100.00;98844.98;1633335;86;21102;-67
2021/08/26 15:33:36;;;;;;;7.12;3.77;;;;;;;15.59;100.00;98841.33;1611505;87;21450;-68
2021/08/26 15:36:03;;;;;;;5.28;3.58;;;;;;;15.59;100.00;98846.73;1640656;86;20993;-65
2021/08/26 15:38:43;;;;;;;5.00;3.87;;;;;;;15.56;100.00;98845.44;1648421;86;21530;-66
2021/08/26 15:41:11;;;;;;;3.27;2.98;;;;;;;15.54;100.00;98844.94;1647280;86;21589;-66
2021/08/26 15:43:39;;;;;;;3.08;2.62;;;;;;;15.48;100.00;98845.34;1634392;86;21130;-66
2021/08/26 15:46:05;;;;;;;3.30;3.00;;;;;;;15.42;100.00;98844.10;1636870;86;21071;-65
2021/08/26 15:48:33;;;;;;;3.40;3.10;;;;;;;15.37;100.00;98849.62;1630823;86;21073;-66
2021/08/26 15:51:00;;;;;;;7.03;3.37;;;;;;;15.33;100.00;98849.97;1628810;88;21075;-66
2021/08/26 15:53:36;;;;;;;3.25;2.95;;;;;;;15.29;100.00;98841.44;1629029;87;21091;-66
2021/08/26 15:55:55;;;;;;;3.40;3.10;;;;;;;15.27;100.00;98847.69;1630596;87;21163;-68
2021/08/26 16:01:16;;;;;;;3.55;3.25;;;;;;;15.17;100.00;98848.14;1683772;85;20897;-68
2021/08/26 16:03:35;;;;;;;3.70;3.40;;;;;;;15.14;100.00;98841.16;1688054;83;20902;-68
2021/08/26 16:06:02;;;;;;;3.58;3.27;;;;;;;15.11;100.00;98841.22;1661105;84;20980;-66
2021/08/26 16:08:29;;;;;;;3.60;3.30;;;;;;;15.09;100.00;98841.27;1655065;85;21818;-66
2021/08/26 16:10:57;;;;;;;3.08;2.80;;;;;;;15.07;100.00;98835.39;1637078;86;26812;-68
2021/08/26 16:13:23;;;;;;;10.13;4.08;;;;;;;15.06;100.00;98837.27;1656205;86;20989;-66
2021/08/26 16:16:18;;;;;;;5.85;4.00;;;;;;;15.06;100.00;98835.91;1667765;85;21010;-68
2021/08/26 16:19:06;;;;;;;3.20;3.00;;;;;;;15.07;100.00;98829.98;1682301;85;20981;-67
2021/08/26 16:22:43;;;;;;;3.95;2.95;;;;;;;15.09;100.00;98825.88;1627880;87;20928;-67
2021/08/26 16:25:11;;;;;;;5.78;3.90;;;;;;;15.08;100.00;98820.20;1631487;87;20960;-65
2021/08/26 16:27:39;;;;;;;5.13;4.67;;;;;;;15.07;100.00;98821.88;1684169;84;21382;-65
2021/08/26 16:30:07;;;;;;;7.53;4.97;;;;;;;15.06;100.00;98824.31;1644855;85;20980;-66
2021/08/26 16:32:35;;;;;;;6.60;4.55;;;;;;;15.05;100.00;98826.22;1633073;85;21111;-67
2021/08/26 16:35:38;;;;;;;6.45;5.03;;;;;;;15.01;100.00;98826.00;1660763;86;21130;-66
2021/08/26 16:38:05;;;;;;;5.40;4.90;;;;;;;14.97;100.00;98828.28;1646976;85;28332;-66
2021/08/26 16:40:31;;;;;;;11.48;5.00;;;;;;;14.91;100.00;98834.87;1633545;85;21474;-66
2021/08/26 16:43:16;;;;;;;5.67;4.97;;;;;;;14.87;100.00;98848.19;1604555;89;21015;-66
2021/08/26 16:50:29;;;;;;;6.45;5.33;;;;;;;14.75;100.00;98848.67;1601649;87;21171;-68
2021/08/26 16:52:57;;;;;;;7.75;5.80;;;;;;;14.63;100.00;98838.91;1599016;88;20990;-68
2021/08/26 16:59:07;;;;;;;6.55;5.70;;;;;;;14.41;100.00;98836.03;1551992;91;21109;-68
2021/08/26 17:01:51;;;;;;;6.75;5.67;;;;;;;14.25;100.00;98832.77;1519764;94;21551;-68
2021/08/26 17:13:35;;;;;;;9.85;7.75;;;;;;;13.78;100.00;98834.03;1478522;96;21065;-68
2021/08/26 17:16:55;;;;;;;87.22;58.17;;;;;;;13.62;100.00;98836.69;1519045;91;21511;-67
2021/08/26 17:19:25;;;;;;;69.25;48.55;;;;;;;13.49;100.00;98837.66;1569581;91;21153;-67
2021/08/26 17:25:51;;;;;;;17.37;14.18;;;;;;;13.28;100.00;98844.43;1532967;91;20958;-66
2021/08/26 17:31:54;;;;;;;12.90;10.35;;;;;;;13.15;100.00;98858.00;1502277;93;21054;-66
2021/08/26 17:34:20;;;;;;;12.07;8.98;;;;;;;13.07;100.00;98848.66;1513873;92;20979;-66
2021/08/26 17:36:47;;;;;;;11.88;8.65;;;;;;;13.04;100.00;98850.59;1519738;92;21135;-65
2021/08/26 17:39:13;;;;;;;11.35;8.95;;;;;;;13.00;100.00;98849.55;1548080;91;21036;-67
2021/08/26 17:41:41;;;;;;;10.72;9.50;;;;;;;12.92;100.00;98851.54;1519744;91;21109;-67
2021/08/26 17:44:07;;;;;;;12.70;9.78;;;;;;;12.85;100.00;98851.08;1544534;90;21105;-66
2021/08/26 17:46:37;;;;;;;11.80;9.40;;;;;;;12.76;100.00;98855.47;1543191;91;21170;-67
2021/08/26 17:49:10;;;;;;;18.00;12.33;;;;;;;12.68;100.00;98850.72;1554968;90;21166;-67
2021/08/26 17:51:37;;;;;;;17.62;11.90;;;;;;;12.61;100.00;98855.08;1536984;92;21105;-65
2021/08/26 17:54:04;;;;;;;26.60;16.77;;;;;;;12.58;100.00;98849.72;1563364;90;21136;-65
2021/08/26 17:56:31;;;;;;;32.88;21.73;;;;;;;12.55;100.00;98850.30;1610937;84;20952;-66
2021/08/26 17:58:57;;;;;;;21.15;16.75;;;;;;;12.50;100.00;98853.04;1652979;86;21459;-65
2021/08/26 18:01:28;;;;;;;28.75;19.12;;;;;;;12.50;100.00;98851.69;1661125;84;21156;-64
2021/08/26 18:04:23;;;;;;;32.03;19.07;;;;;;;12.51;100.00;98851.14;1620049;87;20951;-65
2021/08/26 18:06:51;;;;;;;26.87;16.35;;;;;;;12.41;100.00;98854.17;1626857;88;20912;-66
2021/08/26 18:09:18;;;;;;;22.15;16.75;;;;;;;12.29;100.00;98853.74;1611527;89;21015;-66
2021/08/26 18:11:45;;;;;;;24.75;18.70;;;;;;;12.18;100.00;98851.69;1611717;87;21090;-65
2021/08/26 18:14:11;;;;;;;25.05;18.05;;;;;;;12.12;100.00;98853.34;1624594;86;21335;-66
2021/08/26 18:16:38;;;;;;;26.05;18.70;;;;;;;12.13;100.00;98849.05;1637681;86;20987;-66
2021/08/26 18:19:05;;;;;;;23.95;19.90;;;;;;;12.13;100.00;98848.24;1619205;87;20994;-65
2021/08/26 18:21:35;;;;;;;30.12;19.12;;;;;;;12.12;100.00;98842.03;1611362;89;21041;-65
2021/08/26 18:24:08;;;;;;;25.02;19.25;;;;;;;12.06;100.00;98834.31;1611790;87;21592;-66
2021/08/26 18:26:35;;;;;;;27.52;21.33;;;;;;;12.05;100.00;98840.75;1600701;88;21525;-66
2021/08/26 18:29:22;;;;;;;30.20;20.02;;;;;;;12.11;100.00;98843.13;1624782;88;21528;-65
2021/08/26 18:32:11;;;;;;;29.42;20.05;;;;;;;12.11;100.00;98837.75;1620512;87;21064;-68
2021/08/26 18:38:34;;;;;;;23.47;18.98;;;;;;;11.99;100.00;98846.72;1594534;89;21158;-67
2021/08/26 18:41:29;;;;;;;30.62;20.88;;;;;;;11.91;100.00;98843.30;1525774;92;21018;-67
2021/08/26 18:44:54;;;;;;;23.73;20.60;;;;;;;11.81;100.00;98842.79;1377157;100;21064;-67
2021/08/26 18:47:18;;;;;;;28.35;21.40;;;;;;;11.83;100.00;98842.49;1409854;100;21060;-67
2021/08/26 18:49:52;;;;;;;29.48;24.77;;;;;;;11.80;100.00;98845.20;1428024;100;21139;-67
2021/08/26 18:52:19;;;;;;;22.98;20.25;;;;;;;11.72;100.00;98845.25;1428938;100;21451;-67
2021/08/26 18:54:48;;;;;;;;;;;;;;;11.67;100.00;98845.28;1431270;100;21024;-67
2021/08/26 18:57:19;;;;;;;22.42;17.07;;;;;;;11.68;100.00;98848.77;1408754;100;20174;-66
2021/08/26 18:59:47;;;;;;;23.00;17.92;;;;;;;11.72;100.00;98853.86;1428863;98;21483;-67
2021/08/26 19:02:14;;;;;;;23.70;20.32;;;;;;;11.76;100.00;98852.23;1390943;100;21029;-66
2021/08/26 19:05:01;;;;;;;22.90;18.77;;;;;;;11.74;100.00;98851.70;1429266;100;21088;-67
2021/08/26 19:07:28;;;;;;;74.25;53.63;;;;;;;11.68;100.00;98854.94;1387638;101;21265;-68
2021/08/26 19:09:55;;;;;;;55.33;39.50;;;;;;;11.59;100.00;98852.59;1387480;103;21204;-67
2021/08/26 19:12:23;;;;;;;48.02;33.40;;;;;;;11.53;100.00;98853.69;1387295;101;21544;-68
2021/08/26 19:14:49;;;;;;;56.18;29.65;;;;;;;11.52;100.00;98856.92;1389755;102;20988;-68
2021/08/26 19:17:17;;;;;;;40.67;31.70;;;;;;;11.54;100.00;98856.66;1411193;100;21192;-65
2021/08/26 19:19:43;;;;;;;43.25;32.40;;;;;;;11.49;100.00;98857.48;1514229;93;21155;-65